Time;durP1;ratioP1;P1;durP2;ratioP2;P2;SDS_P1;SDS_P2;PMS_P1;PMS_P2;Temp;Humidity;BMP_temperature;BMP_pressure;BME280_temperature;BME280_humidity;BME280_pressure;Samples;Min_cycle;Max_cycle;Signal;HPM_P1;HPM_P2
2022/06/10 00:00:51;;;;;;;14.48;8.10;;;9.60;99.90;;;;;;5094155;28;20429;-85
2022/06/10 00:03:18;;;;;;;12.02;8.07;;;9.60;99.90;;;;;;5077123;28;20063;-85
2022/06/10 00:05:47;;;;;;;12.73;7.95;;;9.60;99.90;;;;;;5093861;28;20483;-84
2022/06/10 00:08:17;;;;;;;14.45;8.00;;;9.50;99.90;;;;;;5094200;28;20040;-84
2022/06/10 00:10:45;;;;;;;11.90;6.93;;;9.50;99.90;;;;;;5094046;28;20039;-85
2022/06/10 00:13:13;;;;;;;17.48;8.40;;;9.50;99.90;;;;;;5076806;28;20031;-85
2022/06/10 00:15:39;;;;;;;11.07;6.63;;;9.40;99.90;;;;;;5094073;28;20540;-84
2022/06/10 00:18:05;;;;;;;15.48;7.65;;;9.40;99.90;;;;;;5077026;28;20078;-85
2022/06/10 00:20:32;;;;;;;14.73;8.05;;;9.40;99.90;;;;;;5076563;28;20102;-85
2022/06/10 00:22:58;;;;;;;13.18;8.07;;;9.40;99.90;;;;;;5093589;28;20025;-85
2022/06/10 00:25:25;;;;;;;15.95;9.32;;;9.40;99.90;;;;;;5093583;28;20032;-85
2022/06/10 00:28:00;;;;;;;15.38;8.65;;;9.30;99.90;;;;;;5076868;28;20404;-84
2022/06/10 00:30:29;;;;;;;13.80;7.90;;;9.20;99.90;;;;;;5093416;28;20127;-85
2022/06/10 00:32:56;;;;;;;14.32;8.57;;;9.20;99.90;;;;;;5093335;28;20046;-85
2022/06/10 00:35:22;;;;;;;20.02;9.13;;;9.20;99.90;;;;;;5075822;28;20036;-84
2022/06/10 00:37:48;;;;;;;16.95;8.77;;;9.20;99.90;;;;;;5094117;28;20139;-85
2022/06/10 00:40:29;;;;;;;19.83;9.85;;;9.10;99.90;;;;;;5076050;28;20153;-85
2022/06/10 00:42:56;;;;;;;19.20;9.80;;;9.10;99.90;;;;;;5092777;28;20110;-85
2022/06/10 00:45:58;;;;;;;18.42;8.82;;;9.00;99.90;;;;;;5076056;28;20032;-85
2022/06/10 00:49:11;;;;;;;15.60;9.45;;;9.00;99.90;;;;;;5075695;28;20505;-85
2022/06/10 00:52:32;;;;;;;15.70;8.73;;;9.00;99.90;;;;;;4999315;28;20040;-85
2022/06/10 00:54:58;;;;;;;14.77;8.93;;;8.90;99.90;;;;;;4998336;28;20041;-85
2022/06/10 00:57:33;;;;;;;13.20;8.50;;;8.90;99.90;;;;;;5015023;28;20044;-84
2022/06/10 01:00:08;;;;;;;13.43;8.27;;;8.90;99.90;;;;;;5048942;28;20078;-85
2022/06/10 01:02:35;;;;;;;15.77;8.88;;;8.90;99.90;;;;;;5075816;28;20350;-84
2022/06/10 01:05:25;;;;;;;14.15;8.15;;;9.00;99.90;;;;;;5075624;28;20024;-85
2022/06/10 01:07:56;;;;;;;14.43;8.65;;;8.90;99.90;;;;;;5076091;28;20130;-85
2022/06/10 01:10:22;;;;;;;20.23;9.68;;;8.80;99.90;;;;;;5075962;28;20028;-85
2022/06/10 01:13:03;;;;;;;15.07;8.18;;;8.70;99.90;;;;;;5092623;28;20037;-85
2022/06/10 01:15:45;;;;;;;13.43;9.03;;;8.70;99.90;;;;;;5075243;28;20028;-85
2022/06/10 01:18:11;;;;;;;19.50;8.82;;;8.60;99.90;;;;;;5075315;28;20043;-85
2022/06/10 01:21:08;;;;;;;18.40;8.68;;;8.50;99.90;;;;;;5092518;28;20737;-84
2022/06/10 01:24:11;;;;;;;20.95;9.35;;;8.50;99.90;;;;;;5093376;28;20035;-85
2022/06/10 01:29:55;;;;;;;21.02;10.43;;;8.50;99.90;;;;;;5091867;28;20747;-85
2022/06/10 01:32:42;;;;;;;21.05;11.32;;;8.50;99.90;;;;;;5075125;28;20035;-85
2022/06/10 01:35:17;;;;;;;21.70;10.77;;;8.60;99.90;;;;;;5074667;28;20036;-85
2022/06/10 01:38:01;;;;;;;20.05;10.95;;;8.60;99.90;;;;;;5091812;28;20028;-85
2022/06/10 01:41:02;;;;;;;22.30;11.70;;;8.60;99.90;;;;;;5075008;28;20031;-85
2022/06/10 01:43:54;;;;;;;19.55;10.13;;;8.60;99.90;;;;;;5074189;28;20391;-85
2022/06/10 01:50:47;;;;;;;14.73;8.90;;;8.50;99.90;;;;;;5093429;28;20085;-85
2022/06/10 01:53:19;;;;;;;20.08;9.68;;;8.50;99.90;;;;;;5091622;28;20093;-85
2022/06/10 01:55:52;;;;;;;17.55;10.90;;;8.40;99.90;;;;;;5092481;28;20056;-84
2022/06/10 01:58:30;;;;;;;17.98;9.02;;;8.40;99.90;;;;;;5074893;28;20032;-85
2022/06/10 02:01:11;;;;;;;16.52;9.95;;;8.30;99.90;;;;;;5074829;28;20081;-85
2022/06/10 02:04:06;;;;;;;20.52;10.02;;;8.20;99.90;;;;;;5074161;28;20039;-85
2022/06/10 02:06:43;;;;;;;18.15;9.27;;;8.30;99.90;;;;;;5074925;28;20066;-85
2022/06/10 02:09:13;;;;;;;18.17;9.50;;;8.30;99.90;;;;;;5074720;28;20067;-85
2022/06/10 02:11:43;;;;;;;17.90;9.03;;;8.30;99.90;;;;;;5091964;28;20430;-85
2022/06/10 02:14:15;;;;;;;21.10;8.98;;;8.30;99.90;;;;;;5074479;28;20032;-85
2022/06/10 02:16:45;;;;;;;18.88;9.70;;;8.20;99.90;;;;;;5091692;28;20054;-85
2022/06/10 02:19:31;;;;;;;16.03;8.57;;;8.20;99.90;;;;;;5091307;28;20133;-85
2022/06/10 02:22:26;;;;;;;16.45;9.23;;;8.20;99.90;;;;;;5091247;28;20031;-85
2022/06/10 02:24:59;;;;;;;13.45;10.27;;;8.10;99.90;;;;;;5068497;28;20123;-85
2022/06/10 02:27:29;;;;;;;18.33;9.50;;;8.00;99.90;;;;;;5074441;28;20024;-85
2022/06/10 02:30:25;;;;;;;15.60;9.18;;;8.00;99.90;;;;;;5074987;28;20459;-85
2022/06/10 02:32:51;;;;;;;16.83;10.40;;;7.90;99.90;;;;;;5074015;28;20093;-85
2022/06/10 02:35:18;;;;;;;22.25;10.77;;;7.90;99.90;;;;;;5074133;28;20036;-85
2022/06/10 02:38:06;;;;;;;17.65;9.13;;;7.90;99.90;;;;;;5074284;28;20032;-85
2022/06/10 02:40:40;;;;;;;21.10;10.93;;;7.90;99.90;;;;;;5074741;28;20020;-85
2022/06/10 02:43:11;;;;;;;19.70;11.32;;;7.90;99.90;;;;;;5074586;28;20514;-85
2022/06/10 02:45:37;;;;;;;;;;;7.90;99.90;;;;;;5075157;28;20115;-85
2022/06/10 02:48:15;;;;;;;17.58;10.63;;;7.90;99.90;;;;;;5090930;28;20342;-85
2022/06/10 02:50:44;;;;;;;17.40;10.52;;;8.00;99.90;;;;;;5074846;28;20082;-85
2022/06/10 02:53:10;;;;;;;20.83;11.93;;;8.00;99.90;;;;;;5074278;28;20032;-85
2022/06/10 02:55:38;;;;;;;19.58;11.07;;;8.10;99.90;;;;;;5074680;28;20028;-85
2022/06/10 03:01:26;;;;;;;17.38;10.57;;;8.10;99.90;;;;;;5091585;28;20035;-85
2022/06/10 03:04:20;;;;;;;21.02;10.65;;;8.00;99.90;;;;;;5074227;28;20032;-85
2022/06/10 03:07:08;;;;;;;18.27;10.38;;;8.00;99.90;;;;;;5091228;28;20058;-85
2022/06/10 03:09:36;;;;;;;16.77;10.68;;;8.00;99.90;;;;;;5073565;28;20028;-85
2022/06/10 03:12:13;;;;;;;18.65;11.02;;;8.00;99.90;;;;;;5077575;28;20483;-84
2022/06/10 03:15:17;;;;;;;15.70;11.43;;;8.00;99.90;;;;;;5078101;28;20044;-85
2022/06/10 03:17:48;;;;;;;18.63;10.68;;;8.00;99.90;;;;;;5077762;28;20043;-85
2022/06/10 03:20:14;;;;;;;20.25;10.85;;;8.00;99.90;;;;;;5077938;28;20387;-84
2022/06/10 03:22:51;;;;;;;14.13;9.63;;;8.00;99.90;;;;;;5077781;28;20036;-84
2022/06/10 03:25:22;;;;;;;18.77;10.90;;;7.90;99.90;;;;;;5094741;28;20024;-84
2022/06/10 03:27:48;;;;;;;20.42;10.82;;;7.90;99.90;;;;;;5094873;28;20379;-84
2022/06/10 03:30:27;;;;;;;19.52;11.02;;;7.90;99.90;;;;;;5094448;28;20027;-84
2022/06/10 03:33:04;;;;;;;19.05;11.30;;;8.00;99.90;;;;;;5077909;28;20020;-84
2022/06/10 03:35:47;;;;;;;17.38;11.80;;;8.00;99.90;;;;;;5094187;28;20082;-84
2022/06/10 03:38:14;;;;;;;20.83;12.48;;;8.00;99.90;;;;;;5077488;28;20613;-84
2022/06/10 03:40:41;;;;;;;20.77;11.75;;;8.00;99.90;;;;;;5093913;28;20028;-84
2022/06/10 03:43:11;;;;;;;18.70;11.15;;;8.00;99.90;;;;;;5076960;28;20471;-84
2022/06/10 03:45:49;;;;;;;23.30;11.88;;;8.00;99.90;;;;;;5094404;28;20031;-84
2022/06/10 03:48:18;;;;;;;20.00;10.70;;;8.10;99.90;;;;;;5093915;28;20028;-84
2022/06/10 03:50:44;;;;;;;20.85;11.75;;;8.10;99.90;;;;;;5094343;28;20663;-84
2022/06/10 03:53:17;;;;;;;31.23;12.90;;;8.20;99.90;;;;;;5076568;28;20096;-84
2022/06/10 03:55:42;;;;;;;20.67;12.48;;;8.30;99.90;;;;;;5077139;28;20466;-84
2022/06/10 03:58:09;;;;;;;17.15;12.27;;;8.30;99.90;;;;;;5076964;28;20036;-84
2022/06/10 04:00:36;;;;;;;21.80;12.27;;;8.30;99.90;;;;;;5076952;28;20197;-84
2022/06/10 04:03:03;;;;;;;21.67;13.25;;;8.30;99.90;;;;;;5077117;28;20494;-84
2022/06/10 04:05:28;;;;;;;24.60;14.63;;;8.40;99.90;;;;;;5076820;28;20035;-84
2022/06/10 04:07:54;;;;;;;23.63;13.77;;;8.50;99.90;;;;;;5077156;28;20407;-84
2022/06/10 04:10:24;;;;;;;28.08;14.68;;;8.60;99.90;;;;;;5093831;28;20028;-85
2022/06/10 04:12:50;;;;;;;20.63;13.95;;;8.70;99.90;;;;;;5093964;28;20103;-84
2022/06/10 04:15:16;;;;;;;26.40;15.98;;;8.70;99.90;;;;;;5076080;28;20051;-84
2022/06/10 04:17:49;;;;;;;28.98;15.98;;;8.80;99.90;;;;;;5077212;28;20118;-84
2022/06/10 04:20:20;;;;;;;29.63;15.18;;;8.90;99.90;;;;;;5076704;28;20386;-84
2022/06/10 04:22:46;;;;;;;24.88;15.30;;;9.00;99.90;;;;;;5076410;28;20078;-83
2022/06/10 04:25:12;;;;;;;24.33;13.93;;;9.20;99.90;;;;;;5093632;28;20024;-84
2022/06/10 04:27:37;;;;;;;27.00;14.40;;;9.30;99.90;;;;;;5076824;28;20608;-84
2022/06/10 04:30:22;;;;;;;27.25;13.60;;;9.40;99.90;;;;;;5093360;28;20032;-84
2022/06/10 04:32:48;;;;;;;23.52;12.98;;;9.50;99.90;;;;;;5093142;28;20032;-84
2022/06/10 04:35:14;;;;;;;19.60;11.75;;;9.60;99.90;;;;;;5093136;28;20032;-84
2022/06/10 04:38:05;;;;;;;25.38;13.75;;;9.70;99.90;;;;;;5076628;28;20066;-84
2022/06/10 04:40:33;;;;;;;22.67;12.88;;;9.80;99.90;;;;;;5076356;28;20028;-84
2022/06/10 04:43:00;;;;;;;22.33;12.57;;;9.90;99.90;;;;;;5075793;28;20084;-84
2022/06/10 04:45:30;;;;;;;21.73;12.10;;;9.90;99.90;;;;;;5076500;28;20384;-84
2022/06/10 04:47:56;;;;;;;24.52;14.80;;;10.00;99.90;;;;;;5075888;28;20034;-84
2022/06/10 04:50:27;;;;;;;25.48;12.60;;;10.10;99.90;;;;;;5092881;28;20535;-84
2022/06/10 04:52:53;;;;;;;26.83;11.50;;;10.20;99.90;;;;;;5093528;28;20031;-84
2022/06/10 04:59:06;;;;;;;25.40;11.18;;;10.50;99.90;;;;;;5094252;28;20035;-84
2022/06/10 05:01:32;;;;;;;18.30;10.02;;;10.60;99.90;;;;;;5094290;28;20375;-84
2022/06/10 05:03:58;;;;;;;24.65;10.55;;;10.70;99.90;;;;;;5092945;28;20119;-84
2022/06/10 05:06:26;;;;;;;19.65;9.95;;;10.80;99.90;;;;;;5093082;28;20028;-83
2022/06/10 05:08:51;;;;;;;20.25;10.20;;;10.90;99.90;;;;;;5092675;28;20086;-84
2022/06/10 05:11:17;;;;;;;15.85;9.00;;;11.00;99.90;;;;;;5075926;28;20028;-84
2022/06/10 05:13:48;;;;;;;16.42;8.98;;;11.10;99.90;;;;;;5075373;28;20437;-84
2022/06/10 05:16:14;;;;;;;18.52;8.85;;;11.20;99.90;;;;;;5092600;28;20054;-83
2022/06/10 05:18:41;;;;;;;20.35;8.40;;;11.30;99.90;;;;;;5092333;28;20499;-84
2022/06/10 05:21:07;;;;;;;13.27;7.90;;;11.40;99.90;;;;;;5092313;28;20062;-84
2022/06/10 05:23:32;;;;;;;21.98;9.20;;;11.50;99.90;;;;;;5074864;28;20119;-84
2022/06/10 05:25:58;;;;;;;13.02;8.15;;;11.60;99.90;;;;;;5075353;28;20078;-84
2022/06/10 05:28:24;;;;;;;12.90;7.35;;;11.70;99.90;;;;;;5075272;28;20028;-84
2022/06/10 05:30:50;;;;;;;19.23;7.22;;;11.90;99.90;;;;;;5075032;28;20081;-83
2022/06/10 05:33:17;;;;;;;14.77;6.82;;;12.00;99.90;;;;;;5074180;28;20040;-83
2022/06/10 05:35:44;;;;;;;19.33;6.95;;;12.10;99.90;;;;;;5074611;28;20039;-83
2022/06/10 05:38:10;;;;;;;12.10;6.32;;;12.20;99.90;;;;;;5074611;28;20119;-84
2022/06/10 05:40:36;;;;;;;14.10;6.40;;;12.20;99.90;;;;;;5075043;28;20376;-84
2022/06/10 05:43:03;;;;;;;17.30;6.55;;;12.40;99.90;;;;;;5091714;28;20023;-84
2022/06/10 05:45:29;;;;;;;16.38;6.18;;;12.40;99.90;;;;;;5092767;28;20106;-84
2022/06/10 05:48:00;;;;;;;16.27;6.20;;;12.50;99.90;;;;;;5091133;28;20036;-84
2022/06/10 05:50:34;;;;;;;10.10;6.22;;;12.50;99.90;;;;;;5091824;28;20028;-84
2022/06/10 05:53:02;;;;;;;17.80;7.57;;;12.70;99.90;;;;;;5074765;28;20032;-84
2022/06/10 05:55:30;;;;;;;9.05;5.53;;;12.80;99.90;;;;;;5091718;28;20024;-85
2022/06/10 05:57:56;;;;;;;12.13;5.65;;;12.90;99.90;;;;;;5073937;28;20628;-82
2022/06/10 06:00:25;;;;;;;11.73;5.15;;;13.00;99.90;;;;;;5074425;28;20032;-83
2022/06/10 06:02:51;;;;;;;16.33;5.40;;;13.00;99.90;;;;;;5090694;28;20032;-83
2022/06/10 06:05:17;;;;;;;13.63;4.63;;;13.10;99.90;;;;;;5073997;28;20028;-83
2022/06/10 06:07:45;;;;;;;14.57;4.70;;;13.10;99.90;;;;;;5092659;28;20024;-83
2022/06/10 06:10:15;;;;;;;11.13;4.40;;;13.20;99.90;;;;;;5074648;28;20040;-83
2022/06/10 06:12:42;;;;;;;6.47;4.25;;;13.30;99.90;;;;;;5091489;28;20024;-83
2022/06/10 06:15:09;;;;;;;9.90;4.63;;;13.30;99.90;;;;;;5091178;28;20055;-84
2022/06/10 06:17:36;;;;;;;9.77;4.68;;;13.40;99.90;;;;;;5074786;28;20475;-83
2022/06/10 06:20:03;;;;;;;12.40;5.22;;;13.40;99.90;;;;;;5074563;28;20036;-85
2022/06/10 06:23:06;;;;;;;14.70;4.75;;;13.50;99.90;;;;;;5074647;28;20106;-84
2022/06/10 06:25:32;;;;;;;12.98;5.20;;;13.50;99.90;;;;;;5073947;28;20517;-85
2022/06/10 06:27:58;;;;;;;14.70;5.03;;;13.60;99.90;;;;;;5074486;28;20055;-84
2022/06/10 06:30:31;;;;;;;11.32;5.00;;;13.60;99.90;;;;;;5074704;28;20029;-84
2022/06/10 06:33:04;;;;;;;13.73;4.72;;;13.70;99.90;;;;;;5074668;28;20085;-84
2022/06/10 06:35:31;;;;;;;14.32;4.45;;;13.80;99.90;;;;;;5074075;28;20027;-84
2022/06/10 06:37:57;;;;;;;11.63;5.45;;;13.90;99.90;;;;;;5074287;28;20077;-83
2022/06/10 06:40:23;;;;;;;10.85;4.13;;;13.90;99.90;;;;;;5091370;28;20024;-84
2022/06/10 06:42:49;;;;;;;13.18;4.00;;;13.90;99.90;;;;;;5091514;28;20032;-84
2022/06/10 06:45:17;;;;;;;12.52;4.47;;;14.00;99.90;;;;;;5093567;28;20119;-84
2022/06/10 06:47:43;;;;;;;9.43;3.83;;;14.10;99.90;;;;;;5094708;28;20028;-84
2022/06/10 06:50:11;;;;;;;14.65;4.78;;;14.10;99.90;;;;;;5096403;28;20433;-84
2022/06/10 06:52:37;;;;;;;8.35;4.00;;;14.20;99.90;;;;;;5077699;28;20400;-84
2022/06/10 06:55:03;;;;;;;11.02;4.32;;;14.30;99.90;;;;;;5078044;28;20036;-84
2022/06/10 06:57:29;;;;;;;14.35;4.28;;;14.40;99.90;;;;;;5077962;28;20039;-84
2022/06/10 07:00:05;;;;;;;8.38;3.88;;;14.50;99.90;;;;;;5078307;28;20036;-84
2022/06/10 07:02:45;;;;;;;14.60;4.40;;;14.50;99.90;;;;;;5095182;28;20038;-84
2022/06/10 07:05:12;;;;;;;11.20;4.20;;;14.60;99.90;;;;;;5094341;28;20475;-85
2022/06/10 07:07:41;;;;;;;9.82;4.07;;;14.70;99.90;;;;;;5076757;28;20043;-84
2022/06/10 07:10:08;;;;;;;11.35;3.83;;;14.80;99.90;;;;;;5077139;28;20395;-84
2022/06/10 07:12:34;;;;;;;14.30;3.50;;;15.10;99.90;;;;;;5094780;28;20379;-85
2022/06/10 07:15:00;;;;;;;9.43;3.15;;;16.20;99.90;;;;;;5077676;28;20123;-85
2022/06/10 07:17:25;;;;;;;13.30;3.15;;;17.70;99.90;;;;;;5077867;28;20028;-85
2022/06/10 07:19:52;;;;;;;6.28;2.63;;;19.30;99.90;;;;;;5077831;28;20786;-84
2022/06/10 07:22:18;;;;;;;7.40;2.25;;;20.90;99.90;;;;;;5077585;28;20036;-85
2022/06/10 07:24:44;;;;;;;7.72;2.28;;;21.90;99.90;;;;;;5094283;28;20024;-85
2022/06/10 07:27:11;;;;;;;4.15;2.15;;;22.90;99.90;;;;;;5094588;28;20521;-84
2022/06/10 07:29:37;;;;;;;7.45;2.40;;;23.40;99.90;;;;;;5077271;28;20690;-84
2022/06/10 07:32:03;;;;;;;8.73;2.53;;;24.00;99.90;;;;;;5093989;28;20031;-84
2022/06/10 07:34:44;;;;;;;10.55;2.50;;;24.20;99.90;;;;;;5077055;28;20119;-80
2022/06/10 07:37:10;;;;;;;6.43;2.05;;;24.80;99.90;;;;;;5077438;28;20495;-85
2022/06/10 07:39:35;;;;;;;7.25;2.67;;;24.40;99.90;;;;;;5077114;28;20036;-85
2022/06/10 07:42:02;;;;;;;8.77;2.58;;;22.90;99.90;;;;;;5076943;28;20020;-84
2022/06/10 07:44:31;;;;;;;10.50;2.45;;;21.50;99.90;;;;;;5076773;28;20035;-84
2022/06/10 07:47:01;;;;;;;7.43;2.70;;;20.10;99.90;;;;;;5094427;28;20034;-84
2022/06/10 07:49:27;;;;;;;10.32;3.28;;;18.90;99.90;;;;;;5077887;28;20031;-84
2022/06/10 07:51:53;;;;;;;7.63;3.15;;;18.30;99.90;;;;;;5094112;28;20812;-84
2022/06/10 07:54:19;;;;;;;11.00;3.47;;;17.80;99.90;;;;;;5093847;28;20028;-84
2022/06/10 07:56:45;;;;;;;9.93;4.30;;;17.80;99.90;;;;;;5076159;28;20036;-85
2022/06/10 07:59:11;;;;;;;12.32;2.53;;;18.80;99.90;;;;;;5093948;28;20035;-84
2022/06/10 08:01:38;;;;;;;14.95;2.50;;;21.00;99.90;;;;;;5077167;28;20114;-85
2022/06/10 08:04:59;;;;;;;6.15;2.42;;;23.10;99.90;;;;;;5093982;28;20020;-84
2022/06/10 08:10:53;;;;;;;6.47;2.13;;;25.30;99.90;;;;;;5095268;28;19961;-84
2022/06/10 08:13:19;;;;;;;6.57;2.20;;;25.50;99.90;;;;;;5093086;28;20487;-84
2022/06/10 08:22:32;;;;;;;4.82;2.13;;;25.90;99.90;;;;;;5094827;28;20039;-85
2022/06/10 08:23:11;;;;;;;7.40;2.08;;;26.10;99.90;;;;;;5092800;28;20053;-84
2022/06/10 08:25:57;;;;;;;7.18;2.20;;;26.60;98.80;;;;;;5076253;28;20020;-84
2022/06/10 08:28:24;;;;;;;5.53;2.20;;;27.20;94.50;;;;;;5092942;28;20032;-84
2022/06/10 08:30:50;;;;;;;6.95;3.13;;;27.20;93.40;;;;;;5076277;28;20034;-84
2022/06/10 08:33:16;;;;;;;6.22;2.20;;;26.90;93.50;;;;;;5076036;28;20122;-84
2022/06/10 08:35:42;;;;;;;9.68;2.05;;;27.30;91.90;;;;;;5094535;28;20088;-84
2022/06/10 08:38:12;;;;;;;7.32;1.67;;;26.80;91.50;;;;;;5076517;28;20054;-83
2022/06/10 08:40:56;;;;;;;7.10;1.90;;;26.70;90.70;;;;;;5076462;28;20035;-84
2022/06/10 08:43:42;;;;;;;7.70;1.95;;;26.90;92.00;;;;;;5075668;28;20028;-84
2022/06/10 08:46:56;;;;;;;7.43;2.03;;;27.30;90.00;;;;;;5076344;28;20490;-85
2022/06/10 08:49:47;;;;;;;7.00;2.20;;;27.40;88.80;;;;;;5075865;28;20068;-84
2022/06/10 08:52:29;;;;;;;6.68;2.20;;;26.30;90.80;;;;;;5076187;28;20063;-84
2022/06/10 08:55:30;;;;;;;9.50;2.20;;;25.40;91.40;;;;;;5092699;28;20040;-84
2022/06/10 08:58:02;;;;;;;9.25;2.47;;;25.30;91.90;;;;;;5093269;28;20122;-84
2022/06/10 09:00:36;;;;;;;5.60;2.17;;;25.60;92.10;;;;;;5076075;28;20028;-84
2022/06/10 09:03:53;;;;;;;6.40;2.75;;;25.90;93.00;;;;;;5075940;28;20032;-85
2022/06/10 09:06:29;;;;;;;7.75;2.25;;;26.60;92.80;;;;;;4998727;28;20025;-84
2022/06/10 09:09:26;;;;;;;6.22;2.30;;;26.60;91.50;;;;;;4998495;28;20034;-84
2022/06/10 09:12:21;;;;;;;6.35;2.20;;;26.50;92.00;;;;;;5062186;28;20048;-83
2022/06/10 09:14:53;;;;;;;5.85;2.15;;;25.90;91.50;;;;;;5067549;28;20048;-84
2022/06/10 09:17:25;;;;;;;6.43;2.40;;;26.40;92.50;;;;;;5075442;28;20120;-85
2022/06/10 09:20:14;;;;;;;6.82;2.08;;;26.90;91.10;;;;;;5074729;28;20123;-84
2022/06/10 09:23:01;;;;;;;7.15;2.30;;;26.30;90.20;;;;;;5092255;28;20112;-84
2022/06/10 09:25:49;;;;;;;6.03;2.15;;;26.20;90.50;;;;;;5074943;28;20028;-84
2022/06/10 09:28:15;;;;;;;6.97;2.15;;;26.20;91.10;;;;;;5092372;28;20046;-84
2022/06/10 09:30:59;;;;;;;5.75;2.42;;;25.40;91.60;;;;;;5092085;28;20036;-84
2022/06/10 09:33:47;;;;;;;6.70;2.28;;;24.70;92.10;;;;;;5091975;28;20051;-84
2022/06/10 09:36:15;;;;;;;8.07;1.85;;;25.30;90.90;;;;;;5075048;28;20031;-84
2022/06/10 09:39:02;;;;;;;11.50;2.38;;;26.10;89.40;;;;;;5074974;28;20436;-84
2022/06/10 09:41:51;;;;;;;8.80;2.20;;;26.30;88.00;;;;;;5074725;28;20055;-84
2022/06/10 09:44:29;;;;;;;8.77;2.28;;;26.20;88.30;;;;;;5074518;28;20651;-84
2022/06/10 09:47:07;;;;;;;5.47;2.30;;;27.20;86.00;;;;;;5074338;28;20126;-84
2022/06/10 09:49:43;;;;;;;6.68;1.95;;;27.40;83.70;;;;;;5074811;28;20067;-84
2022/06/10 09:52:31;;;;;;;7.30;1.65;;;28.10;81.00;;;;;;5074091;28;20498;-84
2022/06/10 09:55:12;;;;;;;11.80;1.70;;;28.70;76.40;;;;;;5074769;28;20123;-84
2022/06/10 09:57:38;;;;;;;5.55;1.80;;;28.00;76.30;;;;;;5074827;28;20040;-84
2022/06/10 10:00:16;;;;;;;6.75;2.00;;;25.50;80.90;;;;;;5091703;28;20085;-84
2022/06/10 10:03:16;;;;;;;6.38;1.80;;;24.10;87.00;;;;;;5074948;28;20032;-84
2022/06/10 10:09:46;;;;;;;5.93;1.60;;;23.70;83.70;;;;;;5093504;28;20046;-84
2022/06/10 10:12:36;;;;;;;9.27;2.20;;;24.00;80.30;;;;;;5074377;28;20520;-84
2022/06/10 10:15:19;;;;;;;6.63;2.10;;;23.30;82.80;;;;;;5074523;28;20039;-85
2022/06/10 10:18:00;;;;;;;6.93;1.77;;;22.90;86.00;;;;;;5091592;28;20036;-85
2022/06/10 10:20:57;;;;;;;4.43;1.77;;;23.30;88.30;;;;;;5073749;28;20126;-84
2022/06/10 10:23:38;;;;;;;6.15;2.05;;;22.30;86.60;;;;;;5074411;28;20036;-84
2022/06/10 10:26:28;;;;;;;8.75;2.47;;;22.00;88.60;;;;;;5074427;28;20036;-84
2022/06/10 10:29:17;;;;;;;5.45;1.77;;;22.20;89.40;;;;;;5079358;28;20044;-85
2022/06/10 10:32:09;;;;;;;6.35;1.90;;;22.40;88.00;;;;;;5064570;28;20044;-83
2022/06/10 10:34:37;;;;;;;7.20;2.22;;;22.80;87.30;;;;;;5091259;28;20036;-84
2022/06/10 10:37:18;;;;;;;7.65;2.20;;;22.90;86.10;;;;;;5092899;28;20753;-84
2022/06/10 10:39:51;;;;;;;8.43;2.17;;;22.50;85.40;;;;;;5074250;28;20040;-83
2022/06/10 10:42:32;;;;;;;6.43;2.35;;;22.20;87.20;;;;;;5074117;28;20047;-84
2022/06/10 10:45:18;;;;;;;7.38;1.63;;;22.60;86.30;;;;;;5090638;28;20081;-84
2022/06/10 10:48:25;;;;;;;6.28;1.40;;;23.20;85.50;;;;;;5090491;28;20036;-84
2022/06/10 10:51:14;;;;;;;6.47;1.70;;;23.50;82.30;;;;;;5073303;28;20124;-85
2022/06/10 10:53:47;;;;;;;5.35;1.60;;;24.10;82.50;;;;;;5052666;28;20044;-84
2022/06/10 10:56:56;;;;;;;7.15;1.60;;;24.70;81.70;;;;;;5073123;28;20040;-84
2022/06/10 10:59:25;;;;;;;7.03;1.70;;;25.00;83.10;;;;;;5090508;28;20487;-85
2022/06/10 11:01:51;;;;;;;4.15;1.55;;;25.00;81.80;;;;;;5073652;28;20396;-84
2022/06/10 11:04:29;;;;;;;6.88;1.90;;;24.90;81.80;;;;;;5073813;28;20031;-84
2022/06/10 11:07:22;;;;;;;9.05;2.38;;;25.20;78.40;;;;;;5073703;28;20563;-84
2022/06/10 11:09:50;;;;;;;6.25;1.70;;;24.40;78.70;;;;;;5073944;28;20078;-84
2022/06/10 11:12:21;;;;;;;10.35;1.80;;;24.20;81.60;;;;;;5074031;28;20115;-84
2022/06/10 11:15:21;;;;;;;7.35;2.40;;;24.00;79.40;;;;;;5073884;28;20058;-84
2022/06/10 11:17:49;;;;;;;6.72;1.90;;;23.60;81.60;;;;;;5091182;28;20108;-85
2022/06/10 11:20:14;;;;;;;5.32;1.75;;;24.10;84.00;;;;;;5073797;28;20032;-84
2022/06/10 11:22:41;;;;;;;4.95;1.67;;;24.80;79.60;;;;;;5074398;28;20031;-83
2022/06/10 11:25:14;;;;;;;5.80;1.98;;;24.40;80.00;;;;;;5073758;28;20035;-84
2022/06/10 11:27:57;;;;;;;4.55;1.58;;;24.20;79.60;;;;;;5090923;28;20021;-84
2022/06/10 11:30:52;;;;;;;6.10;1.52;;;24.80;78.50;;;;;;5073953;28;20039;-84
2022/06/10 11:33:30;;;;;;;7.72;2.08;;;25.50;76.00;;;;;;5060375;28;20444;-85
2022/06/10 11:36:07;;;;;;;5.93;1.58;;;26.10;76.90;;;;;;5077494;28;20028;-85
2022/06/10 11:38:36;;;;;;;5.70;1.63;;;26.70;73.40;;;;;;5094525;28;20039;-85
2022/06/10 11:41:22;;;;;;;6.30;2.17;;;26.20;79.70;;;;;;5077487;28;20521;-84
2022/06/10 11:43:55;;;;;;;5.78;1.80;;;25.50;77.00;;;;;;5077075;28;20028;-85
2022/06/10 11:46:24;;;;;;;8.55;1.83;;;25.40;73.50;;;;;;5077038;28;20411;-84
2022/06/10 11:49:14;;;;;;;3.47;1.60;;;24.90;73.00;;;;;;5077542;28;20399;-84
2022/06/10 11:55:33;;;;;;;5.72;1.90;;;24.80;76.40;;;;;;5094241;28;20067;-85
2022/06/10 12:01:13;;;;;;;6.53;1.48;;;24.90;72.70;;;;;;5095467;28;20438;-84
2022/06/10 12:03:46;;;;;;;4.60;1.70;;;24.80;73.70;;;;;;5075115;28;20089;-84
2022/06/10 12:06:41;;;;;;;9.98;1.70;;;24.90;78.60;;;;;;5076942;28;20032;-84
2022/06/10 12:09:27;;;;;;;6.32;1.60;;;25.10;75.50;;;;;;5076503;28;20040;-84
2022/06/10 12:12:17;;;;;;;8.45;2.00;;;25.00;72.60;;;;;;5093167;28;20077;-84
2022/06/10 12:14:48;;;;;;;6.40;2.03;;;24.20;74.50;;;;;;5092996;28;20039;-84
2022/06/10 12:17:25;;;;;;;4.80;2.00;;;24.30;77.40;;;;;;5093530;28;20274;-84
2022/06/10 12:20:04;;;;;;;4.18;1.80;;;24.50;79.70;;;;;;5076422;28;20047;-84
2022/06/10 12:22:31;;;;;;;10.40;3.33;;;24.10;77.70;;;;;;5076594;28;20027;-84
2022/06/10 12:24:58;;;;;;;5.10;1.95;;;23.50;72.60;;;;;;5093086;28;20499;-84
2022/06/10 12:27:58;;;;;;;10.10;2.53;;;22.90;79.10;;;;;;5076606;28;20024;-84
2022/06/10 12:30:48;;;;;;;5.70;1.50;;;22.90;80.30;;;;;;5092677;28;20032;-84
2022/06/10 12:33:35;;;;;;;11.10;1.80;;;24.10;76.50;;;;;;5075814;28;20031;-84
2022/06/10 12:36:05;;;;;;;3.13;1.60;;;25.30;72.10;;;;;;5075917;28;20032;-85
2022/06/10 12:38:36;;;;;;;13.00;1.80;;;25.30;72.40;;;;;;5092226;28;20040;-84
2022/06/10 12:41:11;;;;;;;8.00;1.50;;;25.70;70.60;;;;;;5092687;28;20035;-85
2022/06/10 12:43:42;;;;;;;7.60;1.58;;;26.10;70.10;;;;;;5075624;28;20475;-84
2022/06/10 12:46:34;;;;;;;3.75;1.10;;;25.80;70.20;;;;;;5093050;28;20124;-84
2022/06/10 12:49:18;;;;;;;6.07;1.95;;;24.80;76.30;;;;;;5093257;28;20039;-85
2022/06/10 12:52:01;;;;;;;5.97;1.58;;;25.50;77.40;;;;;;5092976;28;20161;-86
2022/06/10 12:55:05;;;;;;;2.47;1.30;;;26.60;76.50;;;;;;5075676;28;20036;-85
2022/06/10 12:57:34;;;;;;;5.68;1.42;;;27.70;72.10;;;;;;5075200;28;20122;-85
2022/06/10 13:00:18;;;;;;;10.65;4.78;;;28.80;70.40;;;;;;5092815;28;20119;-84
2022/06/10 13:02:53;;;;;;;4.50;1.88;;;28.20;59.30;;;;;;5076035;28;20598;-84
2022/06/10 13:05:24;;;;;;;3.30;1.25;;;26.90;61.20;;;;;;5075365;28;20118;-85
2022/06/10 13:07:50;;;;;;;5.00;1.45;;;27.10;68.10;;;;;;5076053;28;20032;-85
2022/06/10 13:10:40;;;;;;;3.85;1.50;;;28.00;63.70;;;;;;5093839;28;20040;-85
2022/06/10 13:13:14;;;;;;;3.35;1.15;;;28.80;62.20;;;;;;5092544;28;20108;-84
2022/06/10 13:15:42;;;;;;;5.90;1.75;;;29.00;62.10;;;;;;5075562;28;20036;-84
2022/06/10 13:18:17;;;;;;;11.85;1.90;;;28.10;63.80;;;;;;5074478;28;20454;-85
2022/06/10 13:20:48;;;;;;;4.32;1.42;;;28.30;62.80;;;;;;5075255;28;20035;-85
2022/06/10 13:23:21;;;;;;;5.30;1.40;;;28.30;59.90;;;;;;5074931;28;20039;-85
2022/06/10 13:26:07;;;;;;;4.88;1.40;;;28.30;60.20;;;;;;5075131;28;20379;-84
2022/06/10 13:28:38;;;;;;;3.58;1.20;;;28.30;60.70;;;;;;5061652;28;20044;-85
2022/06/10 13:31:12;;;;;;;5.60;1.45;;;28.10;61.30;;;;;;5075395;28;20460;-85
2022/06/10 13:33:55;;;;;;;3.97;1.20;;;28.10;61.10;;;;;;5074932;28;20082;-85
2022/06/10 13:36:25;;;;;;;5.43;1.48;;;28.80;59.40;;;;;;5074859;28;20759;-84
2022/06/10 13:38:53;;;;;;;5.00;1.10;;;28.30;58.10;;;;;;5091437;28;20028;-84
2022/06/10 13:41:54;;;;;;;7.10;1.88;;;27.10;61.20;;;;;;5074586;28;20521;-83
2022/06/10 13:44:42;;;;;;;3.85;1.33;;;27.30;60.80;;;;;;5074306;28;20040;-85
2022/06/10 13:47:26;;;;;;;6.07;1.40;;;26.90;64.50;;;;;;5091515;28;20122;-85
2022/06/10 13:52:50;;;;;;;7.47;1.83;;;26.60;60.30;;;;;;5089595;28;20407;-85
2022/06/10 13:55:37;;;;;;;3.17;1.20;;;26.20;65.00;;;;;;5090166;28;20035;-85
2022/06/10 13:58:18;;;;;;;3.05;0.93;;;26.60;59.70;;;;;;5074221;28;20031;-85
2022/06/10 14:00:50;;;;;;;5.57;1.23;;;27.50;61.40;;;;;;5075253;28;20118;-85